Time;durP1;ratioP1;P1;durP2;ratioP2;P2;SDS_P1;SDS_P2;PMS_P1;PMS_P2;Temp;Humidity;BMP_temperature;BMP_pressure;BME280_temperature;BME280_humidity;BME280_pressure;Samples;Min_cycle;Max_cycle;Signal;HPM_P1;HPM_P2
2021/12/06 00:01:16;;;;;;;6.27;5.67;;;;;;;23.81;34.12;94040.66;4998346;28;103457;-55
2021/12/06 00:03:50;;;;;;;6.23;5.73;;;;;;;23.81;34.18;94051.31;4993400;28;102958;-55
2021/12/06 00:06:19;;;;;;;5.80;5.40;;;;;;;23.80;33.55;94015.09;4997548;28;102860;-55
2021/12/06 00:08:44;;;;;;;6.00;5.50;;;;;;;23.80;33.98;94039.09;5003055;28;102769;-55
2021/12/06 00:11:11;;;;;;;6.57;5.97;;;;;;;23.79;33.61;94016.22;5000658;28;102830;-55
2021/12/06 00:13:39;;;;;;;6.20;5.70;;;;;;;23.78;34.12;94030.66;4999199;28;103194;-55
2021/12/06 00:16:09;;;;;;;6.20;5.70;;;;;;;23.79;33.79;94021.53;5008108;28;104260;-55
2021/12/06 00:18:36;;;;;;;5.17;4.70;;;;;;;23.78;33.67;94014.66;5017679;28;103306;-55
2021/12/06 00:21:02;;;;;;;5.10;4.70;;;;;;;23.78;33.52;94025.31;5009182;28;102802;-55
2021/12/06 00:23:28;;;;;;;6.13;5.63;;;;;;;23.78;33.71;94031.44;5010808;28;102788;-55
2021/12/06 00:25:55;;;;;;;5.47;4.97;;;;;;;23.76;33.70;94028.31;4997596;28;103269;-55
2021/12/06 00:28:20;;;;;;;6.50;5.90;;;;;;;23.76;33.61;94049.66;5017593;28;104736;-55
2021/12/06 00:30:46;;;;;;;5.60;5.10;;;;;;;23.77;34.05;94061.88;5006720;28;103401;-55
2021/12/06 00:33:11;;;;;;;6.30;5.80;;;;;;;23.76;33.52;94055.00;5012693;28;102835;-55
2021/12/06 00:35:37;;;;;;;5.07;4.67;;;;;;;23.76;33.44;94064.88;5003417;28;102888;-55
2021/12/06 00:38:02;;;;;;;6.07;5.53;;;;;;;23.75;33.75;94061.44;4993160;28;102969;-55
2021/12/06 00:40:39;;;;;;;6.00;5.50;;;;;;;23.75;33.80;94053.44;4998448;28;102818;-55
2021/12/06 00:43:05;;;;;;;5.93;5.43;;;;;;;23.75;33.62;94047.34;5009504;28;103234;-55
2021/12/06 00:45:31;;;;;;;5.07;4.70;;;;;;;23.75;33.72;94052.66;5017743;28;103387;-55
2021/12/06 00:47:57;;;;;;;6.30;5.80;;;;;;;23.74;33.81;94046.56;4997770;28;102619;-55
2021/12/06 00:50:24;;;;;;;6.17;5.67;;;;;;;23.74;33.92;94046.56;4998217;28;102918;-55
2021/12/06 00:52:50;;;;;;;5.60;5.20;;;;;;;23.75;33.21;94053.44;5008017;28;102778;-55
2021/12/06 00:55:17;;;;;;;5.60;5.20;;;;;;;23.75;33.67;94052.66;5017726;28;103130;-55
2021/12/06 00:57:44;;;;;;;5.73;5.30;;;;;;;23.75;33.66;94060.66;5017441;28;103231;-55
2021/12/06 01:00:15;;;;;;;5.63;5.23;;;;;;;23.74;33.67;94045.78;5013220;28;102648;-55
2021/12/06 01:02:41;;;;;;;6.23;5.73;;;;;;;23.74;33.74;94029.78;5010682;28;102742;-55
2021/12/06 01:05:07;;;;;;;5.27;4.87;;;;;;;23.74;33.81;94043.13;5010119;28;104433;-55
2021/12/06 01:07:33;;;;;;;5.47;5.00;;;;;;;23.73;33.71;94037.00;5006337;28;103470;-55
2021/12/06 01:09:58;;;;;;;6.60;6.07;;;;;;;23.74;33.38;94041.22;4996430;28;102847;-55
2021/12/06 01:12:24;;;;;;;5.47;5.03;;;;;;;23.74;33.36;94051.13;5002323;28;102922;-55
2021/12/06 01:14:49;;;;;;;5.40;5.00;;;;;;;23.73;33.54;94053.00;5000993;28;102776;-55
2021/12/06 01:17:15;;;;;;;5.20;4.80;;;;;;;23.73;33.40;94047.66;5002144;28;103663;-55
2021/12/06 01:19:41;;;;;;;5.33;4.93;;;;;;;23.73;33.60;94034.34;5001616;28;102897;-55
2021/12/06 01:22:38;;;;;;;5.33;4.93;;;;;;;23.73;33.55;94044.22;4997770;28;103147;-55
2021/12/06 01:25:15;;;;;;;5.00;4.50;;;;;;;23.73;33.23;94050.34;5016951;28;102729;-55
2021/12/06 01:41:07;;;;;;;4.60;4.20;;;;;;;23.73;33.24;94017.56;5012318;28;103046;-55
2021/12/06 01:43:32;;;;;;;5.13;4.73;;;;;;;23.72;33.05;93997.34;5014559;28;102806;-55
2021/12/06 01:45:58;;;;;;;4.80;4.40;;;;;;;23.72;33.58;94000.00;5000628;28;103311;-55
2021/12/06 01:48:23;;;;;;;5.53;5.03;;;;;;;23.73;33.58;94009.56;5003418;28;102808;-55
2021/12/06 01:50:49;;;;;;;5.17;4.77;;;;;;;23.72;33.33;94005.34;5018602;28;103565;-55
2021/12/06 01:53:15;;;;;;;5.67;5.27;;;;;;;23.70;33.46;93993.13;4996545;28;102598;-55
2021/12/06 01:55:41;;;;;;;5.83;5.33;;;;;;;23.69;33.32;94002.22;4997557;28;102780;-55
2021/12/06 01:58:07;;;;;;;5.27;4.87;;;;;;;23.70;33.33;94003.78;5000162;28;103176;-55
2021/12/06 02:00:39;;;;;;;5.47;5.07;;;;;;;23.70;33.39;93998.44;5020527;28;102682;-55
2021/12/06 02:03:05;;;;;;;5.40;5.00;;;;;;;23.70;33.43;93990.44;5013617;28;102921;-55
2021/12/06 02:05:32;;;;;;;4.97;4.60;;;;;;;23.70;32.89;93993.13;5005893;28;102900;-55
2021/12/06 02:07:58;;;;;;;5.90;5.40;;;;;;;23.69;33.12;93986.22;5014081;28;102713;-55
2021/12/06 02:10:23;;;;;;;6.10;5.60;;;;;;;23.69;33.26;93998.78;5009753;28;103203;-55
2021/12/06 02:12:52;;;;;;;5.00;4.60;;;;;;;23.69;33.20;93994.22;5007070;28;104073;-55
2021/12/06 02:15:38;;;;;;;5.40;5.00;;;;;;;23.69;33.27;94002.22;5004803;27;103053;-55
2021/12/06 02:18:12;;;;;;;5.60;5.10;;;;;;;23.69;33.09;94004.91;5019131;28;102785;-55
2021/12/06 02:20:58;;;;;;;5.77;5.33;;;;;;;23.69;33.06;94015.56;5018366;28;102883;-55
2021/12/06 02:23:23;;;;;;;5.53;5.13;;;;;;;23.69;33.33;94023.56;5002114;28;102654;-55
2021/12/06 02:25:49;;;;;;;5.40;5.00;;;;;;;23.68;32.92;94006.00;5001472;28;102789;-55
2021/12/06 02:28:14;;;;;;;6.10;5.63;;;;;;;23.69;33.06;94014.78;5005452;28;103269;-55
2021/12/06 02:30:40;;;;;;;5.20;4.80;;;;;;;23.68;33.28;94021.19;5020063;28;102729;-55
2021/12/06 02:33:05;;;;;;;5.27;4.87;;;;;;;23.66;33.49;94000.22;5018515;28;103211;-55
2021/12/06 02:35:31;;;;;;;5.37;4.97;;;;;;;23.68;32.93;94010.53;5002422;28;102923;-55
2021/12/06 02:37:57;;;;;;;6.00;5.50;;;;;;;23.67;32.96;94000.97;5004157;28;103262;-55
2021/12/06 02:40:28;;;;;;;5.40;5.00;;;;;;;23.67;33.08;93985.75;5004145;28;102625;-55
2021/12/06 02:42:54;;;;;;;4.70;4.40;;;;;;;23.66;33.34;93989.53;5000601;28;102523;-55
2021/12/06 02:45:24;;;;;;;5.50;5.10;;;;;;;23.65;33.53;93982.66;4999981;28;102755;-55
2021/12/06 02:47:53;;;;;;;5.30;4.90;;;;;;;23.66;33.01;93986.88;4999084;28;103327;-55
2021/12/06 02:50:21;;;;;;;5.43;5.03;;;;;;;23.66;32.90;93997.53;4994719;28;102887;-55
2021/12/06 02:52:47;;;;;;;5.60;5.20;;;;;;;23.66;32.85;93988.75;4990778;28;102721;-55
2021/12/06 03:01:07;;;;;;;5.80;5.40;;;;;;;23.65;32.76;93985.31;5014205;28;102734;-54
2021/12/06 03:03:33;;;;;;;5.10;4.70;;;;;;;23.64;33.30;93978.44;5020119;28;102822;-54
2021/12/06 03:05:58;;;;;;;5.50;5.00;;;;;;;23.64;32.91;93983.75;5016705;28;102819;-54
2021/12/06 03:08:36;;;;;;;5.20;4.80;;;;;;;23.65;33.01;93989.88;5019752;28;103548;-55
2021/12/06 03:11:03;;;;;;;5.07;4.67;;;;;;;23.64;32.81;93991.00;5012694;28;103263;-54
2021/12/06 03:13:28;;;;;;;5.53;5.13;;;;;;;23.65;33.17;93984.53;5019390;28;102738;-54
2021/12/06 03:15:53;;;;;;;5.90;5.40;;;;;;;23.64;33.38;93973.09;5017873;28;103289;-54
2021/12/06 03:18:19;;;;;;;5.40;5.00;;;;;;;23.66;33.19;93978.09;5019838;28;104128;-54
2021/12/06 03:20:45;;;;;;;5.30;4.90;;;;;;;23.64;32.70;93975.00;5019220;28;102694;-54
2021/12/06 03:23:10;;;;;;;5.13;4.73;;;;;;;23.63;33.02;93982.22;5015041;28;102744;-55
2021/12/06 03:25:36;;;;;;;5.53;5.13;;;;;;;23.65;33.23;93979.22;5008866;28;102784;-54
2021/12/06 03:28:01;;;;;;;5.70;5.30;;;;;;;23.65;32.63;93996.00;5003080;28;103311;-54
2021/12/06 03:30:27;;;;;;;5.03;4.63;;;;;;;23.65;33.04;94005.88;5002337;28;102789;-55
2021/12/06 03:32:52;;;;;;;5.17;4.73;;;;;;;23.65;32.76;93987.22;4993822;28;102724;-54
2021/12/06 03:35:18;;;;;;;5.27;4.87;;;;;;;23.64;33.09;93991.75;5007497;28;102931;-54
2021/12/06 03:37:44;;;;;;;5.30;4.90;;;;;;;23.65;32.93;93990.66;5018957;28;103174;-54
2021/12/06 03:40:10;;;;;;;5.50;5.10;;;;;;;23.65;32.78;93993.31;5013589;28;103120;-55
2021/12/06 03:42:38;;;;;;;5.13;4.73;;;;;;;23.66;32.83;93984.22;5012060;28;103227;-55
2021/12/06 03:45:08;;;;;;;5.30;4.90;;;;;;;23.67;33.11;93984.97;5007439;28;103881;-54
2021/12/06 03:47:34;;;;;;;4.77;4.37;;;;;;;23.66;33.27;93980.75;4999027;28;102728;-54
2021/12/06 03:50:02;;;;;;;5.67;5.27;;;;;;;23.66;33.25;93983.44;5002584;28;102678;-54
2021/12/06 03:52:29;;;;;;;5.07;4.67;;;;;;;23.66;32.86;93981.53;5006350;28;102732;-54
2021/12/06 03:54:55;;;;;;;5.57;5.17;;;;;;;23.66;33.01;93970.88;5012609;28;103461;-54
2021/12/06 03:57:22;;;;;;;6.13;5.63;;;;;;;23.68;32.74;93984.69;5011500;28;103227;-54
2021/12/06 03:59:50;;;;;;;5.37;4.87;;;;;;;23.67;32.79;93983.09;4998651;28;102800;-54
2021/12/06 04:02:17;;;;;;;5.40;5.00;;;;;;;23.67;33.04;93985.75;4999817;28;103262;-55
2021/12/06 04:04:42;;;;;;;7.10;6.50;;;;;;;23.72;33.69;93978.66;4998633;28;103108;-55
2021/12/06 04:07:09;;;;;;;6.20;5.70;;;;;;;23.68;32.83;93973.19;4993367;28;102745;-55
2021/12/06 04:09:35;;;;;;;7.27;6.67;;;;;;;23.70;33.42;93979.00;5005950;28;103102;-55
2021/12/06 04:12:02;;;;;;;6.63;6.13;;;;;;;23.69;33.10;93977.44;5005179;28;103181;-56
2021/12/06 04:14:27;;;;;;;7.93;7.23;;;;;;;23.70;33.42;93979.00;4999008;28;102749;-55
2021/12/06 04:16:53;;;;;;;6.83;6.33;;;;;;;23.72;33.30;93989.34;5008640;28;105561;-55
2021/12/06 04:19:18;;;;;;;7.40;6.80;;;;;;;23.69;33.26;93986.22;5014481;28;102733;-53
2021/12/06 04:21:45;;;;;;;8.23;7.57;;;;;;;23.67;33.17;93972.44;5013764;28;102726;-52
2021/12/06 04:24:12;;;;;;;9.60;8.70;;;;;;;23.68;33.35;93973.19;4998221;28;102964;-52
2021/12/06 04:26:38;;;;;;;9.20;8.40;;;;;;;23.68;33.60;93971.34;5002795;28;103155;-52
2021/12/06 04:29:05;;;;;;;9.50;8.70;;;;;;;23.62;33.37;93975.31;5006702;28;102907;-54
2021/12/06 04:31:34;;;;;;;11.33;9.80;;;;;;;23.57;33.15;93966.78;5004556;28;102824;-55
2021/12/06 04:34:00;;;;;;;12.00;10.87;;;;;;;23.54;33.56;93984.22;5009846;28;103586;-52
2021/12/06 04:36:26;;;;;;;12.37;11.17;;;;;;;23.49;33.72;93984.41;5006754;28;103441;-54
2021/12/06 04:38:52;;;;;;;13.20;11.90;;;;;;;23.47;33.20;93986.63;5013777;27;102796;-55
2021/12/06 04:41:18;;;;;;;13.27;12.17;;;;;;;23.55;33.64;93975.09;5010470;27;103384;-53
2021/12/06 04:43:44;;;;;;;15.60;12.83;;;;;;;23.63;33.55;93982.22;5018256;28;103037;-54
2021/12/06 04:46:10;;;;;;;14.50;13.00;;;;;;;23.69;34.00;93972.91;5021915;28;102706;-52
2021/12/06 04:48:36;;;;;;;15.20;13.77;;;;;;;23.67;34.33;93977.75;5002323;28;102827;-54
2021/12/06 04:51:02;;;;;;;14.43;12.97;;;;;;;23.64;33.83;93975.00;4995703;28;102772;-54
2021/12/06 04:53:36;;;;;;;15.57;13.93;;;;;;;23.58;33.72;93979.78;5001528;28;102742;-53
2021/12/06 04:56:11;;;;;;;13.23;11.00;;;;;;;23.62;34.02;93983.31;5001979;28;103284;-54
2021/12/06 04:58:46;;;;;;;11.77;10.53;;;;;;;23.67;33.62;93974.31;5001644;28;102682;-53
2021/12/06 05:01:18;;;;;;;11.93;10.90;;;;;;;23.68;33.75;93978.53;4997298;28;102869;-54
2021/12/06 05:03:44;;;;;;;12.53;11.43;;;;;;;23.72;33.19;93990.09;5001321;28;103359;-54
2021/12/06 05:06:15;;;;;;;12.17;10.97;;;;;;;23.74;33.61;93987.09;5000595;28;102987;-54
2021/12/06 05:08:46;;;;;;;11.93;10.83;;;;;;;23.75;33.35;93983.31;4999176;28;102753;-54
2021/12/06 05:11:12;;;;;;;12.37;11.17;;;;;;;23.76;32.97;93979.53;4994802;28;106727;-54
2021/12/06 05:13:42;;;;;;;10.57;9.67;;;;;;;23.76;33.43;93991.00;4999081;28;103009;-54
2021/12/06 05:16:08;;;;;;;10.77;9.87;;;;;;;23.78;33.30;93985.31;4999170;28;102673;-54
2021/12/06 05:18:33;;;;;;;10.83;9.73;;;;;;;23.77;32.93;93997.09;4998839;28;103271;-54
2021/12/06 05:20:59;;;;;;;10.60;9.60;;;;;;;23.78;32.86;93995.97;5000890;28;102871;-54
2021/12/06 05:23:25;;;;;;;10.37;9.50;;;;;;;23.77;32.84;94003.22;4994580;28;103391;-54
2021/12/06 05:25:50;;;;;;;9.77;8.97;;;;;;;23.77;32.85;93997.88;5000662;28;102578;-54
2021/12/06 05:28:17;;;;;;;10.80;9.40;;;;;;;23.79;33.05;94013.53;5001036;28;102711;-54
2021/12/06 05:30:44;;;;;;;10.30;9.30;;;;;;;23.80;32.61;94005.19;5001035;28;102748;-54
2021/12/06 05:33:17;;;;;;;9.40;8.60;;;;;;;23.78;32.93;94002.09;4995363;28;102720;-54
2021/12/06 05:35:47;;;;;;;8.57;7.87;;;;;;;23.80;33.11;94004.44;5001047;28;103331;-54
2021/12/06 05:38:12;;;;;;;8.40;7.77;;;;;;;23.79;33.10;94003.66;5001007;28;102751;-54
2021/12/06 05:40:38;;;;;;;8.93;8.13;;;;;;;23.79;33.04;93998.31;5000690;28;102858;-53
2021/12/06 05:43:04;;;;;;;8.63;7.93;;;;;;;23.80;32.47;93996.41;5000964;28;102901;-53
2021/12/06 05:45:32;;;;;;;9.17;8.27;;;;;;;23.80;32.96;93985.75;4995366;28;103087;-53
2021/12/06 05:47:58;;;;;;;8.33;7.63;;;;;;;23.81;33.03;93989.97;4999654;28;102639;-52
2021/12/06 05:50:25;;;;;;;8.63;7.83;;;;;;;23.81;32.91;93989.97;5000380;28;102822;-54
2021/12/06 05:52:54;;;;;;;8.27;7.47;;;;;;;23.81;32.94;93997.97;5000966;28;103239;-53
2021/12/06 05:55:20;;;;;;;7.80;7.20;;;;;;;23.78;32.58;93999.44;4994571;28;103532;-53
2021/12/06 05:57:46;;;;;;;8.17;7.57;;;;;;;23.75;32.75;93984.09;4999997;28;103145;-53
2021/12/06 06:00:14;;;;;;;8.03;7.23;;;;;;;23.81;32.69;93987.31;5001193;28;102875;-53
2021/12/06 06:02:41;;;;;;;6.87;6.27;;;;;;;23.79;32.44;93979.63;5000183;28;103218;-53
2021/12/06 06:05:08;;;;;;;7.33;6.73;;;;;;;23.81;32.76;93987.31;5000814;28;102730;-53
2021/12/06 06:07:33;;;;;;;6.90;6.40;;;;;;;23.81;32.34;93993.41;4995359;28;103771;-53
2021/12/06 06:09:59;;;;;;;6.40;5.90;;;;;;;23.81;32.37;94006.75;5000754;28;103226;-53
2021/12/06 06:12:24;;;;;;;6.17;5.67;;;;;;;23.81;32.47;94001.41;5000757;28;103205;-53
2021/12/06 06:14:50;;;;;;;6.40;5.80;;;;;;;23.82;32.15;93999.53;5001153;28;103307;-53
2021/12/06 06:17:18;;;;;;;5.87;5.37;;;;;;;23.82;32.72;93983.53;4995055;28;102803;-53
2021/12/06 06:19:52;;;;;;;6.40;5.80;;;;;;;23.83;32.62;93979.75;5000004;28;102840;-53
2021/12/06 06:22:17;;;;;;;6.30;5.80;;;;;;;23.85;32.46;93974.84;5000066;28;103148;-53
2021/12/06 06:24:43;;;;;;;5.67;5.27;;;;;;;23.84;32.54;93986.63;5000326;28;102817;-53
2021/12/06 06:27:09;;;;;;;5.70;5.20;;;;;;;23.85;32.24;93988.19;4999525;28;103074;-54
2021/12/06 06:29:35;;;;;;;5.67;5.17;;;;;;;23.85;32.65;94009.53;5002848;28;103064;-53
2021/12/06 06:32:02;;;;;;;6.07;5.47;;;;;;;23.86;32.17;94019.88;5019293;28;102867;-54
2021/12/06 06:34:27;;;;;;;4.70;4.40;;;;;;;23.88;32.38;94019.53;5020254;28;102789;-54
2021/12/06 06:36:53;;;;;;;5.40;5.00;;;;;;;23.88;32.63;94019.53;5020447;28;102629;-53
2021/12/06 06:39:19;;;;;;;5.27;4.77;;;;;;;23.88;32.52;94019.53;5015648;28;102789;-53
2021/12/06 06:41:47;;;;;;;5.13;4.73;;;;;;;23.90;32.34;94020.75;5018732;28;102940;-54
2021/12/06 06:44:15;;;;;;;5.27;4.87;;;;;;;23.90;32.64;94020.75;5020163;28;103331;-54
2021/12/06 06:46:42;;;;;;;4.67;4.37;;;;;;;23.92;32.18;94015.88;5019064;28;102924;-54
2021/12/06 06:49:09;;;;;;;5.03;4.67;;;;;;;23.97;32.41;94028.19;5019415;28;102846;-54
2021/12/06 06:51:34;;;;;;;4.30;4.00;;;;;;;23.97;32.11;94010.28;5014873;28;103844;-54
2021/12/06 06:54:00;;;;;;;4.37;4.00;;;;;;;24.04;32.45;94011.63;5020216;28;103069;-54
2021/12/06 06:56:25;;;;;;;4.60;4.10;;;;;;;24.16;31.86;94016.94;5020387;28;103394;-54
2021/12/06 06:58:51;;;;;;;4.70;4.30;;;;;;;24.12;32.21;94026.72;5020689;28;103402;-54
2021/12/06 07:01:19;;;;;;;5.67;4.20;;;;;;;24.01;32.35;94040.50;5014433;28;103126;-54
2021/12/06 07:03:44;;;;;;;5.00;4.60;;;;;;;23.98;32.20;94032.41;5019159;28;102753;-54
2021/12/06 07:06:10;;;;;;;4.23;3.93;;;;;;;23.97;32.12;94041.53;5019966;28;103232;-53
2021/12/06 07:08:35;;;;;;;4.60;4.20;;;;;;;23.95;32.18;94038.44;5019675;28;102753;-53
2021/12/06 07:11:01;;;;;;;4.10;3.80;;;;;;;23.94;32.16;94036.88;5018689;28;102861;-53
2021/12/06 07:13:27;;;;;;;3.90;3.60;;;;;;;23.93;32.18;94032.66;5014607;28;102613;-54
2021/12/06 07:15:54;;;;;;;3.70;3.33;;;;;;;23.94;32.52;94023.53;5019173;28;102768;-54
2021/12/06 07:18:20;;;;;;;4.13;3.83;;;;;;;23.92;32.27;94018.53;5019798;28;102792;-53
2021/12/06 07:20:46;;;;;;;3.63;3.40;;;;;;;23.94;32.18;94018.19;5018924;28;104235;-52
2021/12/06 07:23:12;;;;;;;3.50;3.20;;;;;;;23.94;32.44;94026.97;5015547;28;103698;-52
2021/12/06 07:25:37;;;;;;;3.70;3.40;;;;;;;23.94;32.32;94018.19;5019003;28;102885;-53
2021/12/06 07:28:07;;;;;;;3.90;3.60;;;;;;;23.94;32.71;94016.31;5019835;28;102828;-53
2021/12/06 07:30:33;;;;;;;3.77;3.47;;;;;;;23.93;32.58;94017.41;5002722;28;102675;-53
2021/12/06 07:32:59;;;;;;;3.60;3.30;;;;;;;23.94;32.30;94010.97;4997916;28;103542;-53
2021/12/06 07:35:27;;;;;;;3.37;3.07;;;;;;;23.94;32.30;94018.19;4993355;28;102763;-53
2021/12/06 07:37:53;;;;;;;3.70;3.40;;;;;;;23.94;32.52;94034.19;4998179;28;102709;-53
2021/12/06 07:40:19;;;;;;;3.73;3.23;;;;;;;23.94;32.44;94036.88;4998044;28;103019;-53
2021/12/06 07:42:46;;;;;;;3.40;3.13;;;;;;;23.93;32.48;94028.09;4998998;28;103294;-53
2021/12/06 07:45:13;;;;;;;3.13;2.93;;;;;;;23.94;32.19;94032.31;4995121;28;102732;-53
2021/12/06 07:47:39;;;;;;;3.60;3.30;;;;;;;23.93;32.24;94027.31;4997464;28;103420;-53
2021/12/06 07:50:11;;;;;;;3.00;2.80;;;;;;;23.93;32.27;94013.97;4999693;28;103297;-53
2021/12/06 07:52:37;;;;;;;2.50;2.30;;;;;;;23.93;32.39;94038.75;4999012;28;102763;-53
2021/12/06 07:55:06;;;;;;;2.60;2.40;;;;;;;23.93;32.58;94036.09;4998635;28;103196;-53
2021/12/06 07:57:32;;;;;;;2.47;2.27;;;;;;;23.94;32.59;94026.19;4993951;28;102918;-54
2021/12/06 07:59:58;;;;;;;2.50;2.30;;;;;;;23.92;31.91;94023.88;4997818;28;103346;-53
2021/12/06 08:02:24;;;;;;;2.47;2.27;;;;;;;23.95;32.56;94019.75;4998224;28;102674;-53
2021/12/06 08:04:59;;;;;;;2.63;2.40;;;;;;;23.94;32.43;94020.88;4998877;28;102721;-53
2021/12/06 08:07:25;;;;;;;2.53;2.33;;;;;;;23.94;32.29;94023.53;4994149;28;103149;-53
2021/12/06 08:09:50;;;;;;;2.47;2.30;;;;;;;23.94;32.43;94018.19;4998374;28;103558;-53
2021/12/06 08:12:16;;;;;;;2.50;2.30;;;;;;;23.92;32.52;94026.53;4979975;28;105383;-53
2021/12/06 08:14:41;;;;;;;1.93;1.83;;;;;;;23.94;32.48;94028.88;5000881;28;102728;-53
2021/12/06 08:17:08;;;;;;;2.47;2.27;;;;;;;23.93;32.19;94027.31;5002738;28;102681;-53
2021/12/06 08:19:33;;;;;;;2.43;2.23;;;;;;;23.94;32.39;94018.19;4996767;28;102817;-54
2021/12/06 08:21:59;;;;;;;2.00;1.90;;;;;;;23.93;32.60;94017.41;5002280;28;103186;-53
2021/12/06 08:24:26;;;;;;;2.53;2.33;;;;;;;23.96;32.48;94037.31;5001207;28;102720;-53
2021/12/06 08:26:51;;;;;;;2.13;2.03;;;;;;;23.96;32.54;94031.97;5002640;28;102718;-53
2021/12/06 08:29:17;;;;;;;2.57;2.37;;;;;;;23.99;32.10;94028.63;5003595;28;102888;-53
2021/12/06 08:31:44;;;;;;;2.43;2.23;;;;;;;23.97;32.24;94012.97;5021301;28;102778;-53
2021/12/06 08:34:10;;;;;;;2.50;2.30;;;;;;;24.03;32.59;94008.19;5021947;28;103368;-53
2021/12/06 08:36:37;;;;;;;3.40;3.10;;;;;;;24.07;32.94;94013.63;5022621;28;103653;-52
2021/12/06 08:39:04;;;;;;;2.50;2.30;;;;;;;24.05;32.87;94019.28;5020829;28;103100;-54
2021/12/06 08:41:30;;;;;;;3.23;3.03;;;;;;;24.05;33.06;94013.19;5017399;28;103340;-53
2021/12/06 08:43:58;;;;;;;2.80;2.50;;;;;;;24.09;32.90;94001.50;5021183;28;102920;-52
2021/12/06 08:46:27;;;;;;;2.70;2.50;;;;;;;24.13;33.14;93999.69;5022270;28;102765;-53
2021/12/06 08:48:54;;;;;;;2.53;2.37;;;;;;;24.16;32.66;94004.34;5021160;28;103205;-53
2021/12/06 08:51:30;;;;;;;3.10;2.90;;;;;;;24.19;32.89;93998.38;5017401;28;103138;-53
2021/12/06 08:54:00;;;;;;;2.80;2.60;;;;;;;24.21;32.62;94001.47;5020902;28;102871;-53
2021/12/06 08:56:27;;;;;;;2.80;2.60;;;;;;;24.21;32.90;94000.69;5021879;28;103319;-53
2021/12/06 08:58:53;;;;;;;2.80;2.60;;;;;;;24.22;32.59;93992.34;5021531;28;103237;-53
2021/12/06 09:01:19;;;;;;;2.40;2.20;;;;;;;24.23;33.21;93985.88;5021055;28;103290;-53
2021/12/06 09:03:45;;;;;;;2.67;2.47;;;;;;;24.27;32.74;93997.44;5016417;28;102849;-54
2021/12/06 09:06:13;;;;;;;2.20;2.07;;;;;;;24.27;33.26;93989.44;5021910;28;102885;-54
2021/12/06 09:08:41;;;;;;;2.23;2.13;;;;;;;24.32;33.14;93995.66;5020816;28;102701;-54
2021/12/06 09:11:06;;;;;;;2.60;2.40;;;;;;;24.32;32.99;93996.44;5021218;28;103334;-55
2021/12/06 09:13:33;;;;;;;2.57;2.37;;;;;;;24.28;32.64;93988.31;5015909;28;102920;-54
2021/12/06 09:16:02;;;;;;;2.47;2.27;;;;;;;24.24;32.93;93986.66;5020886;28;102924;-54
2021/12/06 09:18:30;;;;;;;2.50;2.30;;;;;;;24.22;32.93;93980.91;5020957;28;103460;-53
2021/12/06 09:20:57;;;;;;;2.03;1.93;;;;;;;24.19;33.12;93974.34;5021133;28;103345;-54
2021/12/06 09:23:23;;;;;;;2.10;2.00;;;;;;;24.20;33.21;93973.22;5020922;28;102695;-54
2021/12/06 09:25:48;;;;;;;2.07;1.97;;;;;;;24.20;32.98;93973.22;5016407;27;102966;-54
2021/12/06 09:28:16;;;;;;;1.90;1.80;;;;;;;24.20;32.81;93962.56;5021711;28;103487;-54
2021/12/06 09:30:44;;;;;;;1.80;1.70;;;;;;;24.21;33.19;93952.66;5003781;28;102811;-54
2021/12/06 09:33:13;;;;;;;1.80;1.70;;;;;;;24.19;33.12;93944.97;5000406;28;102764;-54
2021/12/06 09:35:41;;;;;;;1.80;1.70;;;;;;;24.21;32.47;93937.41;5006868;28;102790;-54
2021/12/06 09:38:08;;;;;;;1.73;1.63;;;;;;;24.20;32.63;93965.22;5019951;28;102811;-54
2021/12/06 09:40:37;;;;;;;1.67;1.57;;;;;;;24.21;32.96;93968.66;5019724;28;103281;-54
2021/12/06 09:43:06;;;;;;;1.90;1.80;;;;;;;24.20;32.86;93961.78;5019715;28;102829;-54
2021/12/06 09:45:33;;;;;;;2.07;1.93;;;;;;;24.18;33.09;93954.09;5020790;28;102760;-54
2021/12/06 09:48:00;;;;;;;2.00;1.80;;;;;;;24.20;32.70;93978.56;5016004;28;103382;-54
2021/12/06 09:50:29;;;;;;;1.70;1.60;;;;;;;24.19;32.90;93971.69;5020801;28;103666;-54
2021/12/06 09:52:57;;;;;;;1.97;1.87;;;;;;;24.19;33.14;93966.34;5020446;28;102845;-54
2021/12/06 09:55:25;;;;;;;2.10;1.90;;;;;;;24.19;32.48;93950.31;5021412;28;103042;-54
2021/12/06 09:57:50;;;;;;;1.73;1.63;;;;;;;24.19;32.60;93936.97;5013639;28;103643;-54
2021/12/06 10:00:19;;;;;;;1.60;1.50;;;;;;;24.19;32.85;93946.88;5091097;22;106514;-54
2021/12/06 10:02:45;;;;;;;1.90;1.80;;;;;;;24.19;32.90;93947.66;4941278;28;103091;-55
2021/12/06 10:05:11;;;;;;;1.73;1.63;;;;;;;24.18;32.83;93953.31;4941869;28;102705;-55
2021/12/06 10:07:37;;;;;;;1.87;1.77;;;;;;;24.18;32.56;93934.63;4941178;28;102812;-54
2021/12/06 10:10:07;;;;;;;1.60;1.50;;;;;;;24.17;33.09;93919.72;4940545;28;103304;-55
2021/12/06 10:12:33;;;;;;;2.00;1.80;;;;;;;24.16;33.03;93913.63;4941616;28;102715;-54
2021/12/06 10:15:02;;;;;;;1.50;1.40;;;;;;;24.15;32.78;93912.06;4940808;28;102900;-54
2021/12/06 10:17:28;;;;;;;1.90;1.80;;;;;;;24.15;32.85;93903.28;4941648;28;102703;-54
2021/12/06 10:19:55;;;;;;;2.10;1.77;;;;;;;24.14;33.07;93894.50;4941309;28;102870;-54
2021/12/06 10:22:21;;;;;;;1.50;1.40;;;;;;;24.15;32.67;93896.06;4941062;28;102822;-54
2021/12/06 10:24:56;;;;;;;1.60;1.50;;;;;;;24.15;32.58;93879.25;4941415;28;103054;-54
2021/12/06 10:27:23;;;;;;;1.50;1.40;;;;;;;24.13;32.77;93882.28;4940617;28;103589;-54
2021/12/06 10:29:54;;;;;;;1.40;1.30;;;;;;;24.15;32.92;93879.25;4949518;28;103445;-55
2021/12/06 10:32:25;;;;;;;1.60;1.50;;;;;;;24.13;32.92;93876.16;4942211;28;102707;-55
2021/12/06 10:34:55;;;;;;;1.87;1.77;;;;;;;24.13;33.01;93882.28;4961302;28;102178;-54
2021/12/06 10:37:32;;;;;;;1.50;1.40;;;;;;;24.13;32.59;93881.50;4959752;28;102681;-54
2021/12/06 10:39:58;;;;;;;1.70;1.60;;;;;;;24.13;33.01;93873.50;4960332;28;102729;-55
2021/12/06 10:42:30;;;;;;;1.53;1.43;;;;;;;24.09;33.00;93878.75;4959994;28;102856;-54
2021/12/06 10:45:06;;;;;;;1.57;1.47;;;;;;;24.19;32.62;93859.59;4958544;28;102805;-54
2021/12/06 10:47:31;;;;;;;1.70;1.30;;;;;;;24.22;32.61;93848.22;4960258;28;103018;-55
2021/12/06 10:50:19;;;;;;;1.73;1.50;;;;;;;24.27;33.21;93847.19;4960548;28;102783;-55
2021/12/06 10:52:56;;;;;;;1.20;1.20;;;;;;;24.26;33.44;93854.41;4958238;28;103421;-53
2021/12/06 10:55:26;;;;;;;1.40;1.30;;;;;;;24.27;33.09;93847.97;4960656;28;102756;-55
2021/12/06 10:57:54;;;;;;;1.40;1.30;;;;;;;24.25;33.91;93855.53;4960086;28;103229;-55
2021/12/06 11:00:38;;;;;;;1.40;1.30;;;;;;;24.28;33.62;93856.75;4960391;28;102858;-54
2021/12/06 11:03:16;;;;;;;1.83;1.73;;;;;;;24.24;33.65;93855.88;4959807;28;103439;-54
2021/12/06 11:05:44;;;;;;;1.30;1.20;;;;;;;24.15;32.88;93858.69;4959136;28;102849;-54
2021/12/06 11:08:15;;;;;;;1.70;1.60;;;;;;;24.10;33.58;93864.28;4959939;28;102945;-55
2021/12/06 11:10:46;;;;;;;1.70;1.60;;;;;;;24.06;33.23;93875.97;4960646;28;103229;-55
2021/12/06 11:13:14;;;;;;;1.93;1.83;;;;;;;24.04;33.33;93876.31;4959975;28;102903;-55
2021/12/06 11:16:06;;;;;;;1.93;1.70;;;;;;;24.01;33.66;93871.66;4959680;28;102816;-54
2021/12/06 11:18:36;;;;;;;2.70;1.70;;;;;;;23.99;33.11;93865.88;4959802;28;102508;-54
2021/12/06 11:21:03;;;;;;;1.60;1.50;;;;;;;23.97;33.59;93870.78;4959119;28;102673;-54
2021/12/06 11:23:29;;;;;;;1.27;1.27;;;;;;;23.96;33.44;93862.00;4959992;28;102598;-55
2021/12/06 11:25:58;;;;;;;1.70;1.60;;;;;;;23.98;33.24;93865.09;4959617;28;102742;-55
2021/12/06 11:28:26;;;;;;;1.43;1.33;;;;;;;23.97;33.62;93878.78;4958565;28;102701;-55
2021/12/06 11:31:05;;;;;;;2.13;2.00;;;;;;;23.99;33.14;93855.97;4941186;28;104115;-54
2021/12/06 11:33:33;;;;;;;1.30;1.20;;;;;;;24.00;33.72;93852.19;4940571;28;103223;-54
2021/12/06 11:36:00;;;;;;;1.50;1.40;;;;;;;24.03;33.38;93880.09;4940260;28;102805;-54
2021/12/06 11:38:30;;;;;;;1.50;1.40;;;;;;;24.05;32.93;93869.88;4939397;28;102928;-54
2021/12/06 11:40:59;;;;;;;1.60;1.50;;;;;;;24.08;33.50;93863.06;4939132;28;102894;-54
2021/12/06 11:43:25;;;;;;;1.63;1.53;;;;;;;24.10;33.45;93877.63;4939492;28;104018;-54
2021/12/06 11:45:57;;;;;;;1.50;1.40;;;;;;;24.10;33.41;93850.94;4940633;28;102647;-55